This is the latest recevied weather packets stored in our database for station/object KB9MLJ. If no packets are shown the sender has not sent any weather packets the latest 10 day(s).
| Time | Temp. | Humidity | Pressure | Rain* | Wind** | Luminosity | Snow |
|---|---|---|---|---|---|---|---|
| 1777570110 | 15.56° C | 46% | 1016.1 hPa | 0 mm | - | 724 W/m² | - |
| 1777569806 | 14.44° C | 48% | 1016.1 hPa | 0 mm | - | 785 W/m² | - |
| 1777569502 | 13.89° C | 47% | 1016.4 hPa | 0 mm | - | 784 W/m² | - |
| 1777569199 | 14.44° C | 47% | 1016.4 hPa | 0 mm | - | 323 W/m² | - |
| 1777568895 | 15° C | 47% | 1016.4 hPa | 0 mm | - | 422 W/m² | - |
| 1777568592 | 13.89° C | 47% | 1016.4 hPa | 0 mm | - | 765 W/m² | - |
| 1777568289 | 13.89° C | 48% | 1016.4 hPa | 0 mm | - | 696 W/m² | - |
| 1777567985 | 13.89° C | 47% | 1016.4 hPa | 0 mm | - | 718 W/m² | - |
| 1777567682 | 13.89° C | 50% | 1016.4 hPa | 0 mm | - | 703 W/m² | - |
| 1777567379 | 13.89° C | 50% | 1016.4 hPa | 0 mm | - | 685 W/m² | - |
| 1777567077 | 13.89° C | 49% | 1016.4 hPa | 0 mm | - | 594 W/m² | - |
| 1777566775 | 13.33° C | 49% | 1016.4 hPa | 0 mm | - | 809 W/m² | - |
| 1777566472 | 13.89° C | 48% | 1016.8 hPa | 0 mm | - | 900 W/m² | - |
| 1777566170 | 14.44° C | 50% | 1016.8 hPa | 0 mm | - | 619 W/m² | - |
| 1777565865 | 12.78° C | 53% | 1016.4 hPa | 0 mm | - | 821 W/m² | - |
| 1777565561 | 13.33° C | 50% | 1016.8 hPa | 0 mm | - | 748 W/m² | - |
| 1777565258 | 12.78° C | 50% | 1016.8 hPa | 0 mm | - | 732 W/m² | - |
| 1777564955 | 12.78° C | 51% | 1016.8 hPa | 0 mm | - | 717 W/m² | - |
| 1777564650 | 13.33° C | 49% | 1017.2 hPa | 0 mm | - | 720 W/m² | - |
| 1777564345 | 13.89° C | 50% | 1016.8 hPa | 0 mm | - | 509 W/m² | - |
| 1777564042 | 12.78° C | 54% | 1016.8 hPa | 0 mm | - | 741 W/m² | - |
| 1777563738 | 12.78° C | 54% | 1017.2 hPa | 0 mm | - | 739 W/m² | - |
| 1777563434 | 13.33° C | 52% | 1017.2 hPa | 0 mm | - | 741 W/m² | - |
| 1777563129 | 12.22° C | 52% | 1017.2 hPa | 0 mm | - | 751 W/m² | - |
| 1777562824 | 12.22° C | 53% | 1017.2 hPa | 0 mm | - | 755 W/m² | - |
* Rain latest hour (hover to see other rain measurements)
** Current wind speed in m/s (hover to see current wind gust speed)